Dallas, Texas
Traffic Map
Current Weather Conditions
Dallas, Texas
Few Clouds
Few Clouds
64°
Feels Like: 64°
Wind Chill: 64° Ceiling: Unl
Heat Index: 64° Visibility: 10mi
Dew Point: 46° Wind: 7mph
Humidity: 52% Direction: 180° (S)
Pressure: 29.96in Gusts: 0mph
Raw Report DataKDAL 241353Z 18006KT 10SM FEW250 18/08 A2996 RMK AO2 SLP142 T01780078 $
Traffic Incident Summary
Active as of:
Severity:
Category:
InformationThere was an issue retrieving the traffic information for this location. Please try a different location or try again shortly.
Advertisements
Track Severe Weather on mobile